RYR1CC EPKT-LIEA
Flight info
| Callsign | RYR1CC |
|---|---|
| Flight time | 2h 16m |
| Altitude | 36000 |
| Route | TUSIN DCT UPLAV DCT MIKOV DCT SITNI DCT DETSA DCT KALMO DCT ERTEV DCT TORTU DCT OKROK DCT AJO M194 REVDO |
| Aircraft | B738/M-SDE2E3FGHIRWXY/LB1 |
Departure
| Time | 2026-05-06 08:55 |
|---|---|
| Airport | Katowice Wojciech Korfanty International Airport (EPKT) |
Arrival
| Time | 2026-05-06 11:11 |
|---|---|
| Airport | Alghero-Fertilia Airport (LIEA) |
| Time | Latitude | Longitude | Altitude | Speed | Heading |
|---|---|---|---|---|---|
| 2026-05-06 08:38 | 50.47144 | 19.07966 | 970 ft | 0 kts | 180° |
| 2026-05-06 08:48 | 50.47157 | 19.07966 | 997 ft | 3 kts | 180° |
| 2026-05-06 08:48 | 50.47177 | 19.07966 | 1001 ft | 3 kts | 180° |
| 2026-05-06 08:49 | 50.47195 | 19.07967 | 997 ft | 3 kts | 179° |
| 2026-05-06 08:49 | 50.47215 | 19.07964 | 997 ft | 3 kts | 160° |
| 2026-05-06 08:49 | 50.47230 | 19.07950 | 998 ft | 3 kts | 118° |
| 2026-05-06 08:49 | 50.47233 | 19.07923 | 997 ft | 3 kts | 90° |
| 2026-05-06 08:50 | 50.47233 | 19.07893 | 997 ft | 1 kts | 90° |
| 2026-05-06 08:50 | 50.47233 | 19.07892 | 997 ft | 1 kts | 90° |
| 2026-05-06 08:51 | 50.47233 | 19.07905 | 997 ft | 5 kts | 90° |
| 2026-05-06 08:52 | 50.47233 | 19.07998 | 999 ft | 11 kts | 90° |
| 2026-05-06 08:52 | 50.47233 | 19.08136 | 1000 ft | 13 kts | 90° |
| 2026-05-06 08:52 | 50.47232 | 19.08322 | 997 ft | 19 kts | 90° |
| 2026-05-06 08:52 | 50.47232 | 19.08530 | 1001 ft | 19 kts | 90° |
| 2026-05-06 08:53 | 50.47231 | 19.08730 | 1000 ft | 18 kts | 90° |
| 2026-05-06 08:53 | 50.47231 | 19.08924 | 997 ft | 17 kts | 90° |
| 2026-05-06 08:53 | 50.47230 | 19.09111 | 997 ft | 17 kts | 90° |
| 2026-05-06 08:53 | 50.47230 | 19.09291 | 1000 ft | 16 kts | 90° |
| 2026-05-06 08:54 | 50.47295 | 19.09390 | 1002 ft | 16 kts | 357° |
| 2026-05-06 08:54 | 50.47401 | 19.09390 | 999 ft | 15 kts | 1° |
| 2026-05-06 08:54 | 50.47503 | 19.09390 | 998 ft | 14 kts | 1° |
| 2026-05-06 08:54 | 50.47591 | 19.09351 | 999 ft | 14 kts | 296° |
| 2026-05-06 08:55 | 50.47597 | 19.09164 | 1001 ft | 35 kts | 270° |
| 2026-05-06 08:55 | 50.47598 | 19.08394 | 996 ft | 106 kts | 270° |
| 2026-05-06 08:55 | 50.47603 | 19.06914 | 1009 ft | 163 kts | 267° |
| 2026-05-06 08:55 | 50.47621 | 19.05089 | 1697 ft | 169 kts | 267° |
| 2026-05-06 08:56 | 50.47629 | 19.03260 | 2672 ft | 166 kts | 266° |
| 2026-05-06 08:56 | 50.47629 | 19.01366 | 3454 ft | 182 kts | 268° |
| 2026-05-06 08:56 | 50.47622 | 18.99337 | 4337 ft | 188 kts | 267° |
| 2026-05-06 08:56 | 50.47581 | 18.97228 | 4949 ft | 201 kts | 268° |
| 2026-05-06 08:57 | 50.47578 | 18.94946 | 5508 ft | 214 kts | 269° |
| 2026-05-06 08:57 | 50.47295 | 18.92668 | 6248 ft | 217 kts | 237° |
| 2026-05-06 08:57 | 50.46118 | 18.91127 | 6747 ft | 237 kts | 202° |
| 2026-05-06 08:57 | 50.44377 | 18.90883 | 7102 ft | 264 kts | 182° |
| 2026-05-06 08:58 | 50.42568 | 18.90423 | 7859 ft | 265 kts | 200° |
| 2026-05-06 08:58 | 50.40804 | 18.89522 | 8715 ft | 268 kts | 201° |
| 2026-05-06 08:58 | 50.39028 | 18.88574 | 9592 ft | 271 kts | 202° |
| 2026-05-06 08:58 | 50.37233 | 18.87587 | 10292 ft | 280 kts | 202° |
| 2026-05-06 08:59 | 50.35991 | 18.86891 | 10464 ft | 296 kts | 202° |
| 2026-05-06 08:59 | 50.35821 | 18.86795 | 10478 ft | 299 kts | 202° |
| 2026-05-06 08:59 | 50.33975 | 18.85742 | 10643 ft | 321 kts | 202° |
| 2026-05-06 08:59 | 50.31822 | 18.84506 | 11068 ft | 336 kts | 202° |
| 2026-05-06 09:00 | 50.29611 | 18.83231 | 11748 ft | 341 kts | 202° |
| 2026-05-06 09:00 | 50.27368 | 18.81936 | 12516 ft | 345 kts | 202° |
| 2026-05-06 09:00 | 50.25118 | 18.80631 | 13301 ft | 348 kts | 202° |
| 2026-05-06 09:00 | 50.22833 | 18.79305 | 14018 ft | 351 kts | 202° |
| 2026-05-06 09:01 | 50.20530 | 18.77967 | 14670 ft | 355 kts | 202° |
| 2026-05-06 09:01 | 50.18204 | 18.76618 | 15325 ft | 358 kts | 202° |
| 2026-05-06 09:01 | 50.15856 | 18.75257 | 15999 ft | 362 kts | 202° |
| 2026-05-06 09:01 | 50.13517 | 18.73900 | 16649 ft | 365 kts | 202° |
| 2026-05-06 09:02 | 50.11127 | 18.72517 | 17295 ft | 369 kts | 201° |
| 2026-05-06 09:02 | 50.08708 | 18.71117 | 17938 ft | 372 kts | 201° |
| 2026-05-06 09:02 | 50.06237 | 18.69687 | 18536 ft | 375 kts | 201° |
| 2026-05-06 09:02 | 50.03816 | 18.68289 | 19111 ft | 377 kts | 201° |
| 2026-05-06 09:03 | 50.01345 | 18.66863 | 19683 ft | 380 kts | 201° |
| 2026-05-06 09:03 | 49.98857 | 18.65430 | 20249 ft | 383 kts | 201° |
| 2026-05-06 09:03 | 49.96355 | 18.63989 | 20798 ft | 385 kts | 201° |
| 2026-05-06 09:03 | 49.93837 | 18.62540 | 21335 ft | 388 kts | 202° |
| 2026-05-06 09:04 | 49.91288 | 18.61076 | 21843 ft | 391 kts | 202° |
| 2026-05-06 09:04 | 49.88726 | 18.59605 | 22358 ft | 394 kts | 202° |
| 2026-05-06 09:04 | 49.86260 | 18.57740 | 22826 ft | 396 kts | 213° |
| 2026-05-06 09:04 | 49.84037 | 18.55222 | 23344 ft | 397 kts | 221° |
| 2026-05-06 09:05 | 49.82083 | 18.52192 | 23780 ft | 399 kts | 231° |
| 2026-05-06 09:05 | 49.80373 | 18.48790 | 24214 ft | 401 kts | 232° |
| 2026-05-06 09:05 | 49.78691 | 18.45334 | 24634 ft | 403 kts | 233° |
| 2026-05-06 09:05 | 49.77005 | 18.41853 | 25077 ft | 404 kts | 233° |
| 2026-05-06 09:06 | 49.75315 | 18.38377 | 25530 ft | 405 kts | 233° |
| 2026-05-06 09:06 | 49.73618 | 18.34912 | 25930 ft | 407 kts | 232° |
| 2026-05-06 09:06 | 49.71895 | 18.31416 | 26320 ft | 409 kts | 232° |
| 2026-05-06 09:06 | 49.70165 | 18.27921 | 26694 ft | 410 kts | 232° |
| 2026-05-06 09:07 | 49.68422 | 18.24412 | 27090 ft | 412 kts | 232° |
| 2026-05-06 09:07 | 49.66680 | 18.20915 | 27485 ft | 413 kts | 232° |
| 2026-05-06 09:07 | 49.64922 | 18.17390 | 27875 ft | 414 kts | 232° |
| 2026-05-06 09:07 | 49.63156 | 18.13854 | 28213 ft | 416 kts | 232° |
| 2026-05-06 09:08 | 49.61384 | 18.10312 | 28548 ft | 418 kts | 232° |
| 2026-05-06 09:08 | 49.59605 | 18.06758 | 28959 ft | 418 kts | 232° |
| 2026-05-06 09:08 | 49.57838 | 18.03234 | 29517 ft | 414 kts | 232° |
| 2026-05-06 09:08 | 49.56078 | 17.99728 | 30069 ft | 411 kts | 232° |
| 2026-05-06 09:09 | 49.54339 | 17.96269 | 30515 ft | 408 kts | 232° |
| 2026-05-06 09:09 | 49.52602 | 17.92817 | 30891 ft | 407 kts | 232° |
| 2026-05-06 09:09 | 49.50871 | 17.89382 | 31263 ft | 406 kts | 232° |
| 2026-05-06 09:09 | 49.49144 | 17.85959 | 31666 ft | 404 kts | 232° |
| 2026-05-06 09:10 | 49.47424 | 17.82556 | 32076 ft | 402 kts | 233° |
| 2026-05-06 09:10 | 49.45715 | 17.79178 | 32443 ft | 400 kts | 233° |
| 2026-05-06 09:10 | 49.44007 | 17.75805 | 32808 ft | 399 kts | 233° |
| 2026-05-06 09:10 | 49.42302 | 17.72444 | 33183 ft | 398 kts | 233° |
| 2026-05-06 09:11 | 49.40604 | 17.69100 | 33564 ft | 396 kts | 233° |
| 2026-05-06 09:11 | 49.38912 | 17.65772 | 33892 ft | 395 kts | 233° |
| 2026-05-06 09:11 | 49.37222 | 17.62451 | 34141 ft | 395 kts | 233° |
| 2026-05-06 09:11 | 49.35531 | 17.59131 | 34379 ft | 395 kts | 233° |
| 2026-05-06 09:12 | 49.33837 | 17.55812 | 34629 ft | 395 kts | 232° |
| 2026-05-06 09:12 | 49.32132 | 17.52500 | 34877 ft | 395 kts | 231° |
| 2026-05-06 09:12 | 49.30372 | 17.49333 | 35117 ft | 395 kts | 229° |
| 2026-05-06 09:12 | 49.28517 | 17.46155 | 35363 ft | 395 kts | 229° |
| 2026-05-06 09:13 | 49.26695 | 17.43087 | 35579 ft | 395 kts | 228° |
| 2026-05-06 09:13 | 49.24843 | 17.39973 | 35811 ft | 395 kts | 228° |
| 2026-05-06 09:13 | 49.22964 | 17.36806 | 35835 ft | 399 kts | 228° |
| 2026-05-06 09:14 | 49.19263 | 17.30539 | 35850 ft | 400 kts | 228° |
| 2026-05-06 09:14 | 49.15568 | 17.24270 | 35848 ft | 394 kts | 228° |
| 2026-05-06 09:15 | 49.11913 | 17.18075 | 35861 ft | 391 kts | 228° |
| 2026-05-06 09:15 | 49.08271 | 17.11914 | 35854 ft | 390 kts | 228° |
| 2026-05-06 09:16 | 49.04631 | 17.05773 | 35868 ft | 390 kts | 228° |
| 2026-05-06 09:16 | 49.00998 | 16.99659 | 35851 ft | 390 kts | 228° |
| 2026-05-06 09:17 | 48.97354 | 16.93541 | 35856 ft | 390 kts | 228° |
| 2026-05-06 09:17 | 48.93697 | 16.87413 | 35860 ft | 391 kts | 228° |
| 2026-05-06 09:18 | 48.90026 | 16.81277 | 35866 ft | 393 kts | 228° |
| 2026-05-06 09:18 | 48.86346 | 16.75141 | 35858 ft | 394 kts | 228° |
| 2026-05-06 09:19 | 48.82644 | 16.68978 | 35850 ft | 395 kts | 228° |
| 2026-05-06 09:19 | 48.78953 | 16.62797 | 35855 ft | 396 kts | 231° |
| 2026-05-06 09:20 | 48.75938 | 16.55815 | 35856 ft | 396 kts | 238° |
| 2026-05-06 09:20 | 48.73119 | 16.48633 | 35863 ft | 397 kts | 238° |
| 2026-05-06 09:21 | 48.70281 | 16.41457 | 35849 ft | 397 kts | 238° |
| 2026-05-06 09:21 | 48.67425 | 16.34289 | 35858 ft | 397 kts | 238° |
| 2026-05-06 09:22 | 48.64566 | 16.27147 | 35859 ft | 397 kts | 238° |
| 2026-05-06 09:22 | 48.61705 | 16.20021 | 35858 ft | 397 kts | 238° |
| 2026-05-06 09:23 | 48.58838 | 16.12902 | 35854 ft | 396 kts | 238° |
| 2026-05-06 09:23 | 48.55969 | 16.05795 | 35849 ft | 396 kts | 238° |
| 2026-05-06 09:24 | 48.53102 | 15.98710 | 35853 ft | 395 kts | 238° |
| 2026-05-06 09:24 | 48.50237 | 15.91652 | 35847 ft | 395 kts | 238° |
| 2026-05-06 09:25 | 48.47388 | 15.84650 | 35846 ft | 394 kts | 238° |
| 2026-05-06 09:25 | 48.44523 | 15.77627 | 35847 ft | 394 kts | 238° |
| 2026-05-06 09:26 | 48.41650 | 15.70602 | 35846 ft | 393 kts | 238° |
| 2026-05-06 09:26 | 48.38781 | 15.63605 | 35840 ft | 393 kts | 237° |
| 2026-05-06 09:27 | 48.35904 | 15.56609 | 35831 ft | 393 kts | 237° |
| 2026-05-06 09:27 | 48.33032 | 15.49643 | 35842 ft | 392 kts | 237° |
| 2026-05-06 09:28 | 48.30161 | 15.42696 | 35844 ft | 392 kts | 237° |
| 2026-05-06 09:28 | 48.27279 | 15.35741 | 35849 ft | 391 kts | 237° |
| 2026-05-06 09:29 | 48.24397 | 15.28802 | 35842 ft | 391 kts | 237° |
| 2026-05-06 09:29 | 48.21520 | 15.21894 | 35842 ft | 391 kts | 237° |
| 2026-05-06 09:30 | 48.18630 | 15.14973 | 35834 ft | 391 kts | 237° |
| 2026-05-06 09:30 | 48.15742 | 15.08072 | 35833 ft | 391 kts | 237° |
| 2026-05-06 09:31 | 48.12850 | 15.01182 | 35843 ft | 390 kts | 237° |
| 2026-05-06 09:31 | 48.09959 | 14.94307 | 35837 ft | 390 kts | 237° |
| 2026-05-06 09:32 | 48.07067 | 14.87448 | 35834 ft | 390 kts | 237° |
| 2026-05-06 09:32 | 48.04140 | 14.80638 | 35836 ft | 389 kts | 235° |
| 2026-05-06 09:33 | 48.01037 | 14.74027 | 35837 ft | 389 kts | 234° |
| 2026-05-06 09:33 | 47.97902 | 14.67453 | 35841 ft | 388 kts | 234° |
| 2026-05-06 09:34 | 47.94785 | 14.60881 | 35835 ft | 388 kts | 234° |
| 2026-05-06 09:34 | 47.91674 | 14.54306 | 35836 ft | 388 kts | 234° |
| 2026-05-06 09:35 | 47.88566 | 14.47737 | 35825 ft | 387 kts | 234° |
| 2026-05-06 09:35 | 47.86021 | 14.42367 | 35835 ft | 386 kts | 234° |
| 2026-05-06 09:36 | 47.82921 | 14.35841 | 35843 ft | 386 kts | 234° |
| 2026-05-06 09:36 | 47.79814 | 14.29316 | 35847 ft | 387 kts | 234° |
| 2026-05-06 09:37 | 47.76690 | 14.22770 | 35840 ft | 389 kts | 234° |
| 2026-05-06 09:37 | 47.73555 | 14.16216 | 35838 ft | 390 kts | 234° |
| 2026-05-06 09:38 | 47.70414 | 14.09667 | 35827 ft | 390 kts | 234° |
| 2026-05-06 09:38 | 47.67266 | 14.03120 | 35830 ft | 389 kts | 234° |
| 2026-05-06 09:39 | 47.64117 | 13.96584 | 35831 ft | 389 kts | 234° |
| 2026-05-06 09:39 | 47.60965 | 13.90058 | 35843 ft | 389 kts | 234° |
| 2026-05-06 09:40 | 47.57811 | 13.83546 | 35841 ft | 389 kts | 234° |
| 2026-05-06 09:40 | 47.53078 | 13.73797 | 35839 ft | 388 kts | 234° |
| 2026-05-06 09:41 | 47.49932 | 13.67339 | 35827 ft | 387 kts | 234° |
| 2026-05-06 09:41 | 47.46797 | 13.60916 | 35829 ft | 385 kts | 234° |
| 2026-05-06 09:42 | 47.43656 | 13.54498 | 35831 ft | 384 kts | 234° |
| 2026-05-06 09:42 | 47.40534 | 13.48132 | 35829 ft | 383 kts | 233° |
| 2026-05-06 09:43 | 47.37410 | 13.41779 | 35825 ft | 382 kts | 233° |
| 2026-05-06 09:43 | 47.34294 | 13.35455 | 35817 ft | 380 kts | 233° |
| 2026-05-06 09:44 | 47.31207 | 13.29204 | 35840 ft | 380 kts | 233° |
| 2026-05-06 09:44 | 47.28094 | 13.22914 | 35827 ft | 380 kts | 233° |
| 2026-05-06 09:45 | 47.24980 | 13.16637 | 35831 ft | 378 kts | 233° |
| 2026-05-06 09:45 | 47.21870 | 13.10384 | 35839 ft | 380 kts | 234° |
| 2026-05-06 09:46 | 47.18753 | 13.04129 | 35823 ft | 378 kts | 233° |
| 2026-05-06 09:46 | 47.15639 | 12.97895 | 35851 ft | 378 kts | 233° |
| 2026-05-06 09:47 | 47.12499 | 12.91626 | 35843 ft | 381 kts | 233° |
| 2026-05-06 09:47 | 47.09342 | 12.85343 | 35843 ft | 382 kts | 233° |
| 2026-05-06 09:48 | 47.06182 | 12.79059 | 35853 ft | 383 kts | 233° |
| 2026-05-06 09:48 | 47.03014 | 12.72766 | 35854 ft | 383 kts | 233° |
| 2026-05-06 09:49 | 46.99842 | 12.66483 | 35851 ft | 384 kts | 233° |
| 2026-05-06 09:49 | 46.96681 | 12.60239 | 35854 ft | 383 kts | 233° |
| 2026-05-06 09:50 | 46.93509 | 12.53989 | 35905 ft | 382 kts | 233° |
| 2026-05-06 09:50 | 46.90329 | 12.47736 | 35920 ft | 383 kts | 233° |
| 2026-05-06 09:51 | 46.87132 | 12.41460 | 35944 ft | 382 kts | 233° |
| 2026-05-06 09:51 | 46.83975 | 12.35279 | 35961 ft | 382 kts | 233° |
| 2026-05-06 09:52 | 46.80739 | 12.29111 | 35971 ft | 382 kts | 229° |
| 2026-05-06 09:52 | 46.76760 | 12.23943 | 35983 ft | 384 kts | 220° |
| 2026-05-06 09:53 | 46.72535 | 12.19166 | 35966 ft | 384 kts | 220° |
| 2026-05-06 09:53 | 46.68309 | 12.14381 | 35957 ft | 385 kts | 219° |
| 2026-05-06 09:54 | 46.64108 | 12.09611 | 35966 ft | 383 kts | 220° |
| 2026-05-06 09:54 | 46.59907 | 12.04839 | 35937 ft | 384 kts | 220° |
| 2026-05-06 09:55 | 46.55703 | 12.00069 | 35933 ft | 383 kts | 219° |
| 2026-05-06 09:55 | 46.51506 | 11.95316 | 35917 ft | 383 kts | 219° |
| 2026-05-06 09:56 | 46.47307 | 11.90571 | 35894 ft | 382 kts | 219° |
| 2026-05-06 09:56 | 46.43128 | 11.85858 | 35915 ft | 379 kts | 220° |
| 2026-05-06 09:57 | 46.38958 | 11.81165 | 35907 ft | 380 kts | 219° |
| 2026-05-06 09:57 | 46.34789 | 11.76481 | 35922 ft | 379 kts | 219° |
| 2026-05-06 09:58 | 46.30623 | 11.71810 | 35913 ft | 380 kts | 219° |
| 2026-05-06 09:58 | 46.26445 | 11.67134 | 35918 ft | 380 kts | 219° |
| 2026-05-06 09:59 | 46.22279 | 11.62482 | 35920 ft | 381 kts | 219° |
| 2026-05-06 09:59 | 46.18088 | 11.57810 | 35935 ft | 379 kts | 219° |
| 2026-05-06 10:00 | 46.13906 | 11.53159 | 35932 ft | 380 kts | 219° |
| 2026-05-06 10:00 | 46.09709 | 11.48499 | 35916 ft | 381 kts | 219° |
| 2026-05-06 10:01 | 46.05512 | 11.43851 | 35939 ft | 379 kts | 219° |
| 2026-05-06 10:01 | 46.01350 | 11.39250 | 35925 ft | 375 kts | 219° |
| 2026-05-06 10:02 | 45.97228 | 11.34700 | 35927 ft | 372 kts | 219° |
| 2026-05-06 10:02 | 45.93125 | 11.30181 | 35940 ft | 372 kts | 219° |
| 2026-05-06 10:03 | 45.89020 | 11.25667 | 35914 ft | 371 kts | 219° |
| 2026-05-06 10:03 | 45.84916 | 11.21163 | 35924 ft | 373 kts | 218° |
| 2026-05-06 10:04 | 45.80768 | 11.16620 | 35918 ft | 376 kts | 218° |
| 2026-05-06 10:04 | 45.76587 | 11.12048 | 35918 ft | 379 kts | 218° |
| 2026-05-06 10:05 | 45.72396 | 11.07476 | 35923 ft | 380 kts | 218° |
| 2026-05-06 10:05 | 45.68188 | 11.02895 | 35907 ft | 380 kts | 218° |
| 2026-05-06 10:06 | 45.63973 | 10.98315 | 35918 ft | 381 kts | 218° |
| 2026-05-06 10:06 | 45.59745 | 10.93729 | 35908 ft | 381 kts | 218° |
| 2026-05-06 10:07 | 45.55555 | 10.89193 | 35914 ft | 381 kts | 218° |
| 2026-05-06 10:07 | 45.51323 | 10.84621 | 35906 ft | 381 kts | 218° |
| 2026-05-06 10:08 | 45.47106 | 10.80073 | 35907 ft | 380 kts | 218° |
| 2026-05-06 10:08 | 45.42901 | 10.75547 | 35907 ft | 379 kts | 218° |
| 2026-05-06 10:09 | 45.38700 | 10.71035 | 35907 ft | 378 kts | 218° |
| 2026-05-06 10:09 | 45.34506 | 10.66537 | 35901 ft | 377 kts | 218° |
| 2026-05-06 10:10 | 45.30317 | 10.62054 | 35898 ft | 376 kts | 218° |
| 2026-05-06 10:10 | 45.26135 | 10.57586 | 35899 ft | 377 kts | 218° |
| 2026-05-06 10:11 | 45.21940 | 10.53114 | 35891 ft | 377 kts | 218° |
| 2026-05-06 10:11 | 45.17745 | 10.48650 | 35892 ft | 377 kts | 218° |
| 2026-05-06 10:12 | 45.13533 | 10.44177 | 35885 ft | 378 kts | 218° |
| 2026-05-06 10:12 | 45.09320 | 10.39710 | 35882 ft | 379 kts | 218° |
| 2026-05-06 10:13 | 45.05104 | 10.35249 | 35889 ft | 379 kts | 218° |
| 2026-05-06 10:13 | 45.00866 | 10.30773 | 35887 ft | 380 kts | 218° |
| 2026-05-06 10:14 | 44.96622 | 10.26299 | 35888 ft | 381 kts | 218° |
| 2026-05-06 10:14 | 44.92375 | 10.21830 | 35889 ft | 381 kts | 218° |
| 2026-05-06 10:15 | 44.88112 | 10.17354 | 35890 ft | 382 kts | 218° |
| 2026-05-06 10:15 | 44.83854 | 10.12891 | 35880 ft | 382 kts | 218° |
| 2026-05-06 10:16 | 44.79590 | 10.08430 | 35880 ft | 382 kts | 218° |
| 2026-05-06 10:16 | 44.75325 | 10.03976 | 35878 ft | 382 kts | 218° |
| 2026-05-06 10:17 | 44.71067 | 9.99538 | 35874 ft | 381 kts | 218° |
| 2026-05-06 10:17 | 44.66803 | 9.95102 | 35865 ft | 381 kts | 218° |
| 2026-05-06 10:18 | 44.62547 | 9.90683 | 35872 ft | 380 kts | 218° |
| 2026-05-06 10:18 | 44.58296 | 9.86277 | 35876 ft | 379 kts | 218° |
| 2026-05-06 10:19 | 44.54051 | 9.81885 | 35875 ft | 379 kts | 218° |
| 2026-05-06 10:19 | 44.49798 | 9.77492 | 35865 ft | 380 kts | 218° |
| 2026-05-06 10:20 | 44.45538 | 9.73102 | 35884 ft | 380 kts | 218° |
| 2026-05-06 10:20 | 44.41281 | 9.68721 | 35881 ft | 380 kts | 218° |
| 2026-05-06 10:21 | 44.37020 | 9.64343 | 35901 ft | 380 kts | 218° |
| 2026-05-06 10:21 | 44.32747 | 9.59963 | 35889 ft | 381 kts | 218° |
| 2026-05-06 10:22 | 44.28428 | 9.55746 | 35890 ft | 381 kts | 216° |
| 2026-05-06 10:22 | 44.24011 | 9.51643 | 35890 ft | 382 kts | 216° |
| 2026-05-06 10:23 | 44.19590 | 9.47532 | 35893 ft | 382 kts | 216° |
| 2026-05-06 10:23 | 44.15180 | 9.43413 | 35899 ft | 382 kts | 216° |
| 2026-05-06 10:24 | 44.11510 | 9.39982 | 35894 ft | 381 kts | 216° |
| 2026-05-06 10:24 | 44.07110 | 9.35872 | 35896 ft | 381 kts | 216° |
| 2026-05-06 10:25 | 44.02701 | 9.31760 | 35897 ft | 381 kts | 216° |
| 2026-05-06 10:25 | 43.98300 | 9.27663 | 35898 ft | 381 kts | 216° |
| 2026-05-06 10:26 | 43.93883 | 9.23559 | 35897 ft | 382 kts | 216° |
| 2026-05-06 10:26 | 43.89467 | 9.19463 | 35894 ft | 382 kts | 216° |
| 2026-05-06 10:27 | 43.85043 | 9.15368 | 35892 ft | 383 kts | 216° |
| 2026-05-06 10:27 | 43.80614 | 9.11275 | 35897 ft | 383 kts | 216° |
| 2026-05-06 10:28 | 43.76175 | 9.07179 | 35896 ft | 384 kts | 216° |
| 2026-05-06 10:28 | 43.71726 | 9.03081 | 35896 ft | 384 kts | 216° |
| 2026-05-06 10:29 | 43.67266 | 8.99002 | 35890 ft | 385 kts | 213° |
| 2026-05-06 10:29 | 43.62235 | 8.96338 | 35895 ft | 392 kts | 197° |
| 2026-05-06 10:30 | 43.56749 | 8.95685 | 35907 ft | 400 kts | 185° |
| 2026-05-06 10:30 | 43.51176 | 8.95764 | 35904 ft | 401 kts | 185° |
| 2026-05-06 10:31 | 43.45599 | 8.95803 | 35897 ft | 401 kts | 185° |
| 2026-05-06 10:31 | 43.40022 | 8.95802 | 35902 ft | 401 kts | 185° |
| 2026-05-06 10:32 | 43.34481 | 8.95390 | 35908 ft | 398 kts | 190° |
| 2026-05-06 10:32 | 43.28975 | 8.94706 | 35918 ft | 398 kts | 190° |
| 2026-05-06 10:33 | 43.23459 | 8.94028 | 35904 ft | 398 kts | 190° |
| 2026-05-06 10:33 | 43.17957 | 8.93378 | 35912 ft | 398 kts | 189° |
| 2026-05-06 10:34 | 43.12434 | 8.92738 | 35918 ft | 398 kts | 189° |
| 2026-05-06 10:34 | 43.06911 | 8.92101 | 35918 ft | 399 kts | 189° |
| 2026-05-06 10:35 | 43.01383 | 8.91463 | 35919 ft | 399 kts | 189° |
| 2026-05-06 10:35 | 42.95890 | 8.90834 | 35903 ft | 391 kts | 189° |
| 2026-05-06 10:36 | 42.90507 | 8.90216 | 35909 ft | 386 kts | 190° |
| 2026-05-06 10:36 | 42.87831 | 8.89907 | 35769 ft | 388 kts | 190° |
| 2026-05-06 10:36 | 42.85147 | 8.89598 | 35510 ft | 383 kts | 190° |
| 2026-05-06 10:37 | 42.82508 | 8.89298 | 35098 ft | 379 kts | 190° |
| 2026-05-06 10:37 | 42.79920 | 8.89003 | 34774 ft | 375 kts | 190° |
| 2026-05-06 10:37 | 42.77339 | 8.88710 | 34393 ft | 372 kts | 190° |
| 2026-05-06 10:37 | 42.74763 | 8.88418 | 34033 ft | 369 kts | 190° |
| 2026-05-06 10:38 | 42.72218 | 8.88130 | 33618 ft | 366 kts | 190° |
| 2026-05-06 10:38 | 42.69689 | 8.87844 | 33225 ft | 363 kts | 190° |
| 2026-05-06 10:38 | 42.67178 | 8.87560 | 32864 ft | 360 kts | 191° |
| 2026-05-06 10:38 | 42.64696 | 8.87280 | 32488 ft | 357 kts | 191° |
| 2026-05-06 10:39 | 42.62236 | 8.87001 | 32126 ft | 354 kts | 191° |
| 2026-05-06 10:39 | 42.59792 | 8.86725 | 31754 ft | 350 kts | 191° |
| 2026-05-06 10:39 | 42.57378 | 8.86453 | 31439 ft | 346 kts | 191° |
| 2026-05-06 10:39 | 42.54985 | 8.86184 | 31090 ft | 344 kts | 191° |
| 2026-05-06 10:40 | 42.52603 | 8.85914 | 30736 ft | 343 kts | 191° |
| 2026-05-06 10:40 | 42.50231 | 8.85646 | 30390 ft | 341 kts | 191° |
| 2026-05-06 10:40 | 42.47869 | 8.85379 | 30055 ft | 339 kts | 191° |
| 2026-05-06 10:40 | 42.45525 | 8.85115 | 29662 ft | 338 kts | 191° |
| 2026-05-06 10:41 | 42.43195 | 8.84853 | 29251 ft | 334 kts | 191° |
| 2026-05-06 10:41 | 42.40908 | 8.84599 | 28979 ft | 328 kts | 191° |
| 2026-05-06 10:41 | 42.38630 | 8.84342 | 28599 ft | 325 kts | 191° |
| 2026-05-06 10:41 | 42.36391 | 8.84092 | 28246 ft | 323 kts | 192° |
| 2026-05-06 10:42 | 42.34160 | 8.83840 | 27921 ft | 322 kts | 191° |
| 2026-05-06 10:42 | 42.31919 | 8.83592 | 27551 ft | 323 kts | 191° |
| 2026-05-06 10:42 | 42.29660 | 8.83338 | 27210 ft | 330 kts | 191° |
| 2026-05-06 10:42 | 42.27343 | 8.83072 | 26858 ft | 338 kts | 191° |
| 2026-05-06 10:43 | 42.25003 | 8.82808 | 26490 ft | 337 kts | 191° |
| 2026-05-06 10:43 | 42.22766 | 8.82559 | 26140 ft | 335 kts | 191° |
| 2026-05-06 10:43 | 42.20451 | 8.82302 | 25789 ft | 333 kts | 191° |
| 2026-05-06 10:44 | 42.15870 | 8.81794 | 25098 ft | 329 kts | 191° |
| 2026-05-06 10:44 | 42.13596 | 8.81536 | 24749 ft | 326 kts | 191° |
| 2026-05-06 10:44 | 42.11342 | 8.81287 | 24423 ft | 325 kts | 191° |
| 2026-05-06 10:44 | 42.09094 | 8.81039 | 24073 ft | 323 kts | 191° |
| 2026-05-06 10:45 | 42.06854 | 8.80791 | 23736 ft | 323 kts | 191° |
| 2026-05-06 10:45 | 42.04611 | 8.80541 | 23340 ft | 323 kts | 191° |
| 2026-05-06 10:45 | 42.02408 | 8.80296 | 22965 ft | 321 kts | 191° |
| 2026-05-06 10:45 | 42.00158 | 8.80048 | 22593 ft | 319 kts | 190° |
| 2026-05-06 10:46 | 41.97982 | 8.79808 | 22259 ft | 316 kts | 190° |
| 2026-05-06 10:46 | 41.95769 | 8.79563 | 21908 ft | 314 kts | 190° |
| 2026-05-06 10:46 | 41.93628 | 8.79326 | 21580 ft | 312 kts | 190° |
| 2026-05-06 10:46 | 41.91470 | 8.79087 | 21246 ft | 310 kts | 190° |
| 2026-05-06 10:47 | 41.89323 | 8.78849 | 20913 ft | 308 kts | 190° |
| 2026-05-06 10:47 | 41.87195 | 8.78614 | 20591 ft | 306 kts | 190° |
| 2026-05-06 10:47 | 41.85077 | 8.78379 | 20263 ft | 305 kts | 189° |
| 2026-05-06 10:47 | 41.82968 | 8.78147 | 19947 ft | 303 kts | 189° |
| 2026-05-06 10:48 | 41.80863 | 8.77915 | 19619 ft | 303 kts | 189° |
| 2026-05-06 10:48 | 41.78771 | 8.77684 | 19295 ft | 302 kts | 189° |
| 2026-05-06 10:48 | 41.76685 | 8.77440 | 18961 ft | 301 kts | 191° |
| 2026-05-06 10:48 | 41.74600 | 8.77082 | 18524 ft | 304 kts | 192° |
| 2026-05-06 10:49 | 41.72504 | 8.76670 | 18151 ft | 304 kts | 192° |
| 2026-05-06 10:49 | 41.70415 | 8.76251 | 17821 ft | 302 kts | 192° |
| 2026-05-06 10:49 | 41.68349 | 8.75839 | 17523 ft | 299 kts | 192° |
| 2026-05-06 10:49 | 41.66292 | 8.75434 | 17179 ft | 298 kts | 192° |
| 2026-05-06 10:50 | 41.64247 | 8.75034 | 16848 ft | 296 kts | 192° |
| 2026-05-06 10:50 | 41.62213 | 8.74639 | 16516 ft | 295 kts | 192° |
| 2026-05-06 10:50 | 41.60190 | 8.74248 | 16188 ft | 293 kts | 192° |
| 2026-05-06 10:50 | 41.58178 | 8.73861 | 15871 ft | 291 kts | 192° |
| 2026-05-06 10:51 | 41.56179 | 8.73476 | 15553 ft | 290 kts | 192° |
| 2026-05-06 10:51 | 41.54187 | 8.73094 | 15240 ft | 288 kts | 192° |
| 2026-05-06 10:51 | 41.52207 | 8.72714 | 14934 ft | 287 kts | 192° |
| 2026-05-06 10:51 | 41.50236 | 8.72336 | 14627 ft | 285 kts | 192° |
| 2026-05-06 10:52 | 41.48279 | 8.71961 | 14313 ft | 284 kts | 192° |
| 2026-05-06 10:52 | 41.46324 | 8.71587 | 14025 ft | 283 kts | 192° |
| 2026-05-06 10:52 | 41.44384 | 8.71216 | 13717 ft | 282 kts | 192° |
| 2026-05-06 10:52 | 41.42449 | 8.70846 | 13387 ft | 280 kts | 192° |
| 2026-05-06 10:53 | 41.40517 | 8.70477 | 13030 ft | 280 kts | 192° |
| 2026-05-06 10:53 | 41.38595 | 8.70110 | 12701 ft | 279 kts | 192° |
| 2026-05-06 10:53 | 41.36682 | 8.69745 | 12378 ft | 278 kts | 192° |
| 2026-05-06 10:53 | 41.34795 | 8.69385 | 12063 ft | 277 kts | 192° |
| 2026-05-06 10:54 | 41.32913 | 8.68930 | 11717 ft | 274 kts | 200° |
| 2026-05-06 10:54 | 41.31145 | 8.68026 | 11407 ft | 271 kts | 206° |
| 2026-05-06 10:54 | 41.29438 | 8.66996 | 11103 ft | 269 kts | 207° |
| 2026-05-06 10:54 | 41.27733 | 8.65951 | 10776 ft | 269 kts | 207° |
| 2026-05-06 10:55 | 41.26032 | 8.64923 | 10474 ft | 268 kts | 207° |
| 2026-05-06 10:55 | 41.24332 | 8.63910 | 10200 ft | 267 kts | 207° |
| 2026-05-06 10:55 | 41.22644 | 8.62916 | 9920 ft | 265 kts | 206° |
| 2026-05-06 10:55 | 41.20955 | 8.61927 | 9602 ft | 264 kts | 206° |
| 2026-05-06 10:56 | 41.19276 | 8.60951 | 9309 ft | 263 kts | 206° |
| 2026-05-06 10:56 | 41.17608 | 8.59983 | 9012 ft | 261 kts | 206° |
| 2026-05-06 10:56 | 41.15945 | 8.59020 | 8726 ft | 260 kts | 206° |
| 2026-05-06 10:56 | 41.14294 | 8.58065 | 8441 ft | 258 kts | 206° |
| 2026-05-06 10:57 | 41.12650 | 8.57116 | 8148 ft | 257 kts | 206° |
| 2026-05-06 10:57 | 41.11015 | 8.56173 | 7873 ft | 256 kts | 206° |
| 2026-05-06 10:57 | 41.09390 | 8.55236 | 7593 ft | 254 kts | 206° |
| 2026-05-06 10:57 | 41.07769 | 8.54303 | 7316 ft | 253 kts | 206° |
| 2026-05-06 10:58 | 41.06153 | 8.53373 | 7041 ft | 252 kts | 206° |
| 2026-05-06 10:58 | 41.04539 | 8.52465 | 6769 ft | 251 kts | 205° |
| 2026-05-06 10:58 | 41.02973 | 8.51630 | 6509 ft | 251 kts | 204° |
| 2026-05-06 10:58 | 41.01355 | 8.50777 | 6232 ft | 250 kts | 204° |
| 2026-05-06 10:59 | 40.99743 | 8.49927 | 5951 ft | 249 kts | 204° |
| 2026-05-06 10:59 | 40.98138 | 8.49080 | 5676 ft | 248 kts | 204° |
| 2026-05-06 10:59 | 40.96543 | 8.48237 | 5411 ft | 246 kts | 204° |
| 2026-05-06 10:59 | 40.94959 | 8.47400 | 5151 ft | 245 kts | 204° |
| 2026-05-06 11:00 | 40.93379 | 8.46565 | 4893 ft | 244 kts | 204° |
| 2026-05-06 11:00 | 40.91824 | 8.45743 | 4620 ft | 244 kts | 204° |
| 2026-05-06 11:00 | 40.90249 | 8.44910 | 4481 ft | 237 kts | 203° |
| 2026-05-06 11:00 | 40.88740 | 8.44113 | 4359 ft | 230 kts | 204° |
| 2026-05-06 11:01 | 40.87276 | 8.43340 | 4252 ft | 223 kts | 204° |
| 2026-05-06 11:01 | 40.85861 | 8.42594 | 4159 ft | 215 kts | 204° |
| 2026-05-06 11:01 | 40.84512 | 8.41883 | 4063 ft | 208 kts | 203° |
| 2026-05-06 11:01 | 40.83167 | 8.41124 | 3872 ft | 207 kts | 206° |
| 2026-05-06 11:02 | 40.81861 | 8.40331 | 3649 ft | 207 kts | 206° |
| 2026-05-06 11:02 | 40.80554 | 8.39536 | 3425 ft | 208 kts | 206° |
| 2026-05-06 11:02 | 40.79239 | 8.38739 | 3178 ft | 208 kts | 206° |
| 2026-05-06 11:02 | 40.77929 | 8.37947 | 3037 ft | 210 kts | 206° |
| 2026-05-06 11:03 | 40.76587 | 8.37134 | 3010 ft | 211 kts | 206° |
| 2026-05-06 11:03 | 40.75256 | 8.36330 | 2992 ft | 209 kts | 206° |
| 2026-05-06 11:03 | 40.73936 | 8.35535 | 2985 ft | 208 kts | 205° |
| 2026-05-06 11:03 | 40.72634 | 8.34750 | 3001 ft | 205 kts | 205° |
| 2026-05-06 11:04 | 40.71339 | 8.33970 | 2985 ft | 204 kts | 205° |
| 2026-05-06 11:04 | 40.70054 | 8.33195 | 2986 ft | 202 kts | 205° |
| 2026-05-06 11:04 | 40.68794 | 8.32435 | 2986 ft | 202 kts | 205° |
| 2026-05-06 11:04 | 40.67520 | 8.31668 | 2857 ft | 203 kts | 205° |
| 2026-05-06 11:05 | 40.66389 | 8.30613 | 2899 ft | 199 kts | 233° |
| 2026-05-06 11:05 | 40.65935 | 8.28874 | 2964 ft | 210 kts | 268° |
| 2026-05-06 11:05 | 40.66374 | 8.27016 | 2983 ft | 224 kts | 306° |
| 2026-05-06 11:05 | 40.67676 | 8.25898 | 2996 ft | 232 kts | 346° |
| 2026-05-06 11:06 | 40.69275 | 8.26077 | 3019 ft | 234 kts | 19° |
| 2026-05-06 11:06 | 40.70749 | 8.26896 | 2993 ft | 223 kts | 24° |
| 2026-05-06 11:06 | 40.72096 | 8.27733 | 2977 ft | 205 kts | 25° |
| 2026-05-06 11:06 | 40.73335 | 8.28506 | 2975 ft | 191 kts | 24° |
| 2026-05-06 11:07 | 40.74536 | 8.29270 | 2988 ft | 191 kts | 25° |
| 2026-05-06 11:07 | 40.75726 | 8.30029 | 2838 ft | 189 kts | 29° |
| 2026-05-06 11:07 | 40.76542 | 8.31309 | 2545 ft | 185 kts | 80° |
| 2026-05-06 11:07 | 40.76450 | 8.32948 | 2248 ft | 177 kts | 107° |
| 2026-05-06 11:08 | 40.76130 | 8.34518 | 2215 ft | 179 kts | 120° |
| 2026-05-06 11:08 | 40.75248 | 8.35539 | 2208 ft | 168 kts | 172° |
| 2026-05-06 11:08 | 40.74124 | 8.35355 | 2199 ft | 168 kts | 202° |
| 2026-05-06 11:08 | 40.72977 | 8.34834 | 1941 ft | 174 kts | 201° |
| 2026-05-06 11:09 | 40.71888 | 8.34273 | 1750 ft | 162 kts | 205° |
| 2026-05-06 11:09 | 40.70877 | 8.33681 | 1493 ft | 154 kts | 208° |
| 2026-05-06 11:09 | 40.69957 | 8.33129 | 1328 ft | 139 kts | 207° |
| 2026-05-06 11:09 | 40.69079 | 8.32604 | 1128 ft | 139 kts | 208° |
| 2026-05-06 11:10 | 40.68189 | 8.32063 | 1026 ft | 142 kts | 206° |
| 2026-05-06 11:10 | 40.67281 | 8.31523 | 807 ft | 142 kts | 206° |
| 2026-05-06 11:10 | 40.66398 | 8.30992 | 574 ft | 139 kts | 203° |
| 2026-05-06 11:10 | 40.65809 | 8.30649 | 409 ft | 140 kts | 205° |
| 2026-05-06 11:11 | 40.64937 | 8.30115 | 241 ft | 137 kts | 204° |
| 2026-05-06 11:11 | 40.64087 | 8.29603 | 104 ft | 131 kts | 204° |
| 2026-05-06 11:11 | 40.63350 | 8.29158 | 100 ft | 97 kts | 205° |
| 2026-05-06 11:11 | 40.62873 | 8.28872 | 94 ft | 48 kts | 204° |
| 2026-05-06 11:12 | 40.62629 | 8.28846 | 81 ft | 22 kts | 160° |
| 2026-05-06 11:12 | 40.62647 | 8.28987 | 84 ft | 21 kts | 23° |
| 2026-05-06 11:12 | 40.62780 | 8.29066 | 89 ft | 21 kts | 24° |
| 2026-05-06 11:12 | 40.62861 | 8.29208 | 89 ft | 20 kts | 70° |
| 2026-05-06 11:13 | 40.62963 | 8.29315 | 89 ft | 19 kts | 25° |
| 2026-05-06 11:13 | 40.63066 | 8.29376 | 92 ft | 14 kts | 24° |
| 2026-05-06 11:13 | 40.63100 | 8.29397 | 91 ft | 4 kts | 25° |
| 2026-05-06 11:13 | 40.63122 | 8.29410 | 93 ft | 2 kts | 24° |
| 2026-05-06 11:14 | 40.63134 | 8.29419 | 94 ft | 2 kts | 34° |
| 2026-05-06 11:14 | 40.63135 | 8.29465 | 92 ft | 7 kts | 112° |
| 2026-05-06 11:14 | 40.63128 | 8.29484 | 90 ft | 0 kts | 113° |